Herzlich willkommen!

Am freundlichen Bodensee-Flugplatz zwischen Schwarzwald, Rhein und Alpen.

Aktuelles

21.10.2018
NOTAM EDTZ
KONSTANZ EDTZ RUNWAY LIMITED E2535/18 From 21 Oct 2018 11:00 until 16 Dec 2018 23:59 RWY PARTLY DAMAGED DUE TO LONG DRYNESS.
— Flugleitung EDTZ
21.10.2018
Neue Sichtflugkarte EDTZ
Bitte beachten Sie die neuen An- und Abflugverfahren. Wird veröffentlicht am 25. Oktober 2018. Neue Frequenz 124,355 MHz. Der Gegenanflug Piste 30 wurde verlängert bis kurz vor die neue Rheinbrücke. Direktabflüge Piste 12 sind nicht mehr gestattet. Abdrehen nach Norden bei Abflügen nach Westen erst zwischen Hegne und Allensbach. Hubschrauberstart vom jeweiligen RWY-Beginn mit maximaler Steigrate. Bei Direktanflug/ Direktabflug sind Flüge unterhalb 2000 ft AGL so kurz wie möglich zu halten. Um Beschwerden zu vermeiden, bitten wir Sie, sich an die veröffentlichten Verfahren zu halten
— Flugleitung EDTZ

Live am Platz

Die Bilder unserer Webcams werden alle 5 Minuten aktualisiert.

Sonnenaufgang:

06:30 UTC / 07:30 Lokal

Sonnenuntergang:

15:46 UTC / 16:46 Lokal

METAR (17.11.2018 05:50 UTC):

EDNY 170550Z 10004KT 8000 OVC022 03/M00 Q1024
MVFR

TAF (17.11.2018 05:00 UTC):

TAF EDNY 170500Z 1706/1806 05008KT 9999 BKN020

Alle Angaben unverbindlich und ohne Gewähr. Zeiten genähert.

Für den Verkehrslandeplatz Konstanz werden keine offiziellen Wetterinformationen herausgegeben. Daher werden zur Orientierung Daten des nahegelegenen Flughafens Friedrichshafen dargestellt.